Arnold, United Kingdom
Current Conditions -  °F | °C
As of 5:50 PM on Tuesday 21 Oct 2014 (Local Time) from EGNX Reporting Station
Scattered Clouds Scattered Clouds  
Wind Chill: 37°   Ceiling: Unl
Heat Index: 45°   Visibility: 6mi
Dew Point: 37°   Wind: 20mph
Humidity: 76%   Direction: 290°WNW
Pressure: 29.85"   Gusts: 33mph
Location:  53.01°N, 1.13°W
Report Text: EGNX 211650Z 29017G29KT 9999 FEW020 SCT030 07/03 Q1011 RESHRA
Loading
Personal Weather Stations






























Interactive Weather Map
Tropical Storm Tracking
New forecast layout! Learn more

10-Day Weather Forecast

Advertisements
Track Severe Weather on mobile